Time;durP1;ratioP1;P1;durP2;ratioP2;P2;SDS_P1;SDS_P2;PMS_P1;PMS_P2;Temp;Humidity;BMP_temperature;BMP_pressure;BME280_temperature;BME280_humidity;BME280_pressure;Samples;Min_cycle;Max_cycle;Signal;HPM_P1;HPM_P2
2021/10/11 00:01:10;;;;;;;3.97;0.98;;;12.30;99.90;;;;;;4953831;28;20069;-63
2021/10/11 00:03:36;;;;;;;6.90;0.80;;;12.30;99.90;;;;;;4954672;28;20039;-62
2021/10/11 00:06:01;;;;;;;3.92;0.80;;;12.30;99.90;;;;;;4955051;28;20039;-63
2021/10/11 00:08:27;;;;;;;4.60;1.05;;;12.40;99.90;;;;;;4954477;28;20035;-62
2021/10/11 00:10:53;;;;;;;10.05;1.20;;;12.40;99.90;;;;;;4955211;28;20122;-62
2021/10/11 00:13:21;;;;;;;4.72;1.35;;;12.40;99.90;;;;;;4953429;28;20388;-61
2021/10/11 00:15:46;;;;;;;5.75;1.20;;;12.50;99.90;;;;;;4950353;28;20039;-62
2021/10/11 00:18:12;;;;;;;7.55;1.23;;;12.50;99.90;;;;;;4954412;28;20717;-62
2021/10/11 00:20:38;;;;;;;6.13;1.35;;;12.50;99.90;;;;;;4953859;28;20043;-62
2021/10/11 00:23:03;;;;;;;6.57;1.10;;;12.50;99.90;;;;;;4954604;28;20047;-62
2021/10/11 00:25:29;;;;;;;5.95;1.35;;;12.50;99.90;;;;;;4954054;28;20061;-61
2021/10/11 00:27:54;;;;;;;11.38;2.50;;;12.50;99.90;;;;;;4954496;28;20031;-62
2021/10/11 00:30:20;;;;;;;5.93;1.00;;;12.60;99.90;;;;;;4954201;28;20027;-62
2021/10/11 00:32:48;;;;;;;6.53;1.13;;;12.60;99.90;;;;;;4945140;28;20053;-62
2021/10/11 00:35:14;;;;;;;6.72;1.33;;;12.60;99.90;;;;;;4954230;28;20054;-62
2021/10/11 00:37:40;;;;;;;9.85;1.33;;;12.60;99.90;;;;;;4953778;28;20039;-63
2021/10/11 00:40:07;;;;;;;4.20;1.17;;;12.60;99.90;;;;;;4954167;28;20041;-62
2021/10/11 00:42:34;;;;;;;4.25;1.17;;;12.60;99.90;;;;;;4953259;28;20079;-61
2021/10/11 00:45:00;;;;;;;11.00;1.15;;;12.60;99.90;;;;;;4954174;28;20132;-61
2021/10/11 00:47:25;;;;;;;6.57;0.95;;;12.50;99.90;;;;;;4953604;28;20583;-65
2021/10/11 00:49:51;;;;;;;3.20;1.00;;;12.50;99.90;;;;;;4953600;28;20043;-62
2021/10/11 00:52:17;;;;;;;3.55;0.90;;;12.50;99.90;;;;;;4953930;28;20035;-61
2021/10/11 00:54:44;;;;;;;6.97;0.90;;;12.50;99.90;;;;;;4953657;28;20058;-62
2021/10/11 00:57:10;;;;;;;6.95;0.80;;;12.50;99.90;;;;;;4954020;28;20058;-62
2021/10/11 00:59:35;;;;;;;6.55;1.23;;;12.50;99.90;;;;;;4953209;28;20081;-62
2021/10/11 01:02:02;;;;;;;5.63;0.98;;;12.40;99.90;;;;;;4953604;28;20035;-62
2021/10/11 01:04:28;;;;;;;4.65;1.15;;;12.40;99.90;;;;;;4953258;28;20031;-62
2021/10/11 01:06:54;;;;;;;4.07;0.90;;;12.30;99.90;;;;;;4953836;28;20038;-61
2021/10/11 01:09:19;;;;;;;4.03;1.15;;;12.30;99.90;;;;;;4953625;28;20459;-63
2021/10/11 01:11:49;;;;;;;8.35;1.05;;;12.30;99.90;;;;;;4953216;28;20043;-62
2021/10/11 01:14:16;;;;;;;6.32;1.13;;;12.30;99.90;;;;;;4953674;28;20027;-62
2021/10/11 01:16:42;;;;;;;15.40;1.17;;;12.30;99.90;;;;;;4952809;28;20028;-62
2021/10/11 01:19:07;;;;;;;5.68;1.08;;;12.30;99.90;;;;;;4953414;28;20042;-62
2021/10/11 01:21:33;;;;;;;6.68;1.00;;;12.30;99.90;;;;;;4952941;28;20042;-63
2021/10/11 01:23:59;;;;;;;9.35;1.00;;;12.30;99.90;;;;;;4953522;28;20402;-63
2021/10/11 01:26:38;;;;;;;8.23;0.80;;;12.30;99.90;;;;;;4953489;28;20085;-62
2021/10/11 01:29:05;;;;;;;7.63;1.30;;;12.20;99.90;;;;;;4972367;28;20049;-63
2021/10/11 01:31:31;;;;;;;7.05;1.10;;;12.20;99.90;;;;;;4972310;28;20123;-63
2021/10/11 01:33:56;;;;;;;6.45;1.17;;;12.10;99.90;;;;;;4972460;28;20039;-62
2021/10/11 01:36:22;;;;;;;8.38;1.40;;;12.10;99.90;;;;;;4972779;28;20089;-63
2021/10/11 01:38:49;;;;;;;5.10;0.90;;;12.10;99.90;;;;;;4968696;28;20035;-62
2021/10/11 01:41:15;;;;;;;2.75;0.38;;;12.10;99.90;;;;;;4972500;28;20147;-63
2021/10/11 01:43:40;;;;;;;6.05;0.70;;;12.10;99.90;;;;;;4971203;28;20459;-63
2021/10/11 01:46:06;;;;;;;3.72;1.20;;;12.00;99.90;;;;;;4972393;28;20432;-62
2021/10/11 01:48:32;;;;;;;9.50;1.33;;;12.00;99.90;;;;;;4971899;28;20405;-63
2021/10/11 01:50:57;;;;;;;5.22;0.98;;;11.90;99.90;;;;;;4972531;28;20034;-62
2021/10/11 01:53:23;;;;;;;7.63;0.90;;;11.80;99.90;;;;;;4972145;28;20065;-62
2021/10/11 01:55:48;;;;;;;4.90;1.13;;;11.80;99.90;;;;;;4971972;28;20038;-63
2021/10/11 01:58:14;;;;;;;3.38;0.47;;;11.70;99.90;;;;;;4972048;28;20065;-63
2021/10/11 02:00:39;;;;;;;10.07;0.90;;;11.60;99.90;;;;;;4971858;28;20042;-62
2021/10/11 02:03:07;;;;;;;4.18;0.85;;;11.60;99.90;;;;;;4972728;28;20042;-62
2021/10/11 02:05:34;;;;;;;7.50;0.70;;;11.50;99.90;;;;;;4973482;28;20077;-62
2021/10/11 02:07:59;;;;;;;4.38;0.90;;;11.50;99.90;;;;;;4972410;28;20027;-63
2021/10/11 02:10:25;;;;;;;4.90;0.63;;;11.40;99.90;;;;;;4972189;28;20035;-64
2021/10/11 02:12:50;;;;;;;3.33;1.23;;;11.30;99.90;;;;;;4971642;28;20042;-63
2021/10/11 02:15:16;;;;;;;8.63;1.50;;;11.30;99.90;;;;;;4971542;28;20039;-62
2021/10/11 02:17:42;;;;;;;5.63;0.98;;;11.20;99.90;;;;;;4971548;28;20117;-63
2021/10/11 02:20:08;;;;;;;6.28;1.10;;;11.20;99.90;;;;;;4971763;28;20030;-62
2021/10/11 02:22:34;;;;;;;7.53;1.30;;;11.20;99.90;;;;;;4970694;28;20035;-62
2021/10/11 02:25:00;;;;;;;6.03;0.88;;;11.10;99.90;;;;;;4971883;28;20467;-62
2021/10/11 02:27:26;;;;;;;8.30;0.95;;;11.10;99.90;;;;;;4968915;28;20061;-63
2021/10/11 02:29:51;;;;;;;4.80;1.25;;;11.10;99.90;;;;;;4971560;28;20115;-63
2021/10/11 02:32:17;;;;;;;6.43;0.85;;;11.00;99.90;;;;;;4971556;28;20038;-63
2021/10/11 02:34:42;;;;;;;7.00;0.63;;;11.00;99.90;;;;;;4970238;28;20470;-63
2021/10/11 02:37:08;;;;;;;8.27;1.05;;;10.90;99.90;;;;;;4970976;28;20100;-62
2021/10/11 02:39:33;;;;;;;12.27;1.17;;;10.90;99.90;;;;;;4971065;28;20101;-63
2021/10/11 02:41:59;;;;;;;3.92;0.95;;;10.80;99.90;;;;;;4971243;28;20065;-62
2021/10/11 02:44:24;;;;;;;2.65;1.10;;;10.80;99.90;;;;;;4971329;28;20055;-62
2021/10/11 02:46:50;;;;;;;10.07;1.00;;;10.80;99.90;;;;;;4969740;28;20431;-62
2021/10/11 02:49:16;;;;;;;2.47;0.50;;;10.70;99.90;;;;;;4971370;28;20062;-62
2021/10/11 02:51:41;;;;;;;4.82;1.25;;;10.70;99.90;;;;;;4971064;28;20122;-62
2021/10/11 02:54:07;;;;;;;6.43;1.27;;;10.60;99.90;;;;;;4971584;28;20089;-62
2021/10/11 02:56:32;;;;;;;4.13;0.80;;;10.60;99.90;;;;;;4971547;28;20042;-62
2021/10/11 02:58:58;;;;;;;5.60;1.58;;;10.60;99.90;;;;;;4971517;28;20093;-63
2021/10/11 03:01:23;;;;;;;3.90;1.05;;;10.50;99.90;;;;;;4972141;28;20134;-62
2021/10/11 03:03:49;;;;;;;6.47;0.70;;;10.50;99.90;;;;;;4971011;28;20041;-63
2021/10/11 03:06:14;;;;;;;12.98;1.05;;;10.40;99.90;;;;;;4971356;28;20050;-63
2021/10/11 03:08:40;;;;;;;6.05;1.13;;;10.40;99.90;;;;;;4970430;28;20076;-61
2021/10/11 03:11:06;;;;;;;3.72;0.80;;;10.30;99.90;;;;;;4970998;28;20406;-62
2021/10/11 03:13:31;;;;;;;7.93;1.05;;;10.30;99.90;;;;;;4970252;28;20046;-62
2021/10/11 03:15:57;;;;;;;7.38;0.80;;;10.20;99.90;;;;;;4970888;28;20039;-64
2021/10/11 03:18:23;;;;;;;12.90;1.50;;;10.20;99.90;;;;;;4970619;28;20038;-63
2021/10/11 03:20:49;;;;;;;3.72;0.80;;;10.20;99.90;;;;;;4970663;28;20556;-61
2021/10/11 03:23:14;;;;;;;3.78;0.95;;;10.10;99.90;;;;;;4970536;28;20039;-62
2021/10/11 03:25:40;;;;;;;7.38;1.20;;;10.20;99.90;;;;;;4970174;28;20050;-62
2021/10/11 03:28:06;;;;;;;5.22;1.40;;;10.10;99.90;;;;;;4969108;28;20042;-62
2021/10/11 03:30:32;;;;;;;6.85;1.30;;;10.10;99.90;;;;;;4970261;28;20114;-62
2021/10/11 03:32:58;;;;;;;5.95;1.80;;;10.10;99.90;;;;;;4970272;28;20034;-62
2021/10/11 03:35:24;;;;;;;5.20;1.30;;;10.00;99.90;;;;;;4970676;28;20042;-62
2021/10/11 03:37:50;;;;;;;6.93;1.10;;;10.00;99.90;;;;;;4967326;28;20058;-62
2021/10/11 03:40:16;;;;;;;6.90;1.10;;;10.00;99.90;;;;;;4970350;28;20031;-62
2021/10/11 03:42:41;;;;;;;2.78;1.27;;;9.90;99.90;;;;;;4969939;28;20037;-63
2021/10/11 03:45:07;;;;;;;4.72;1.35;;;9.90;99.90;;;;;;4970777;28;20035;-62
2021/10/11 03:47:33;;;;;;;7.60;1.52;;;9.90;99.90;;;;;;4970300;28;20031;-63
2021/10/11 03:49:58;;;;;;;6.75;1.10;;;9.90;99.90;;;;;;4970564;28;20054;-62
2021/10/11 03:52:24;;;;;;;7.28;1.10;;;9.90;99.90;;;;;;4970419;28;20035;-62
2021/10/11 03:54:50;;;;;;;5.72;1.27;;;9.90;99.90;;;;;;4969826;28;20034;-62
2021/10/11 03:57:16;;;;;;;7.38;1.05;;;9.90;99.90;;;;;;4970679;28;20050;-62
2021/10/11 03:59:41;;;;;;;9.32;2.38;;;10.00;99.90;;;;;;4969801;28;20139;-62
2021/10/11 04:02:07;;;;;;;2.50;1.30;;;10.00;99.90;;;;;;4970563;28;20448;-62
2021/10/11 04:04:34;;;;;;;4.60;1.30;;;10.10;99.90;;;;;;4969760;28;20031;-63
2021/10/11 04:07:06;;;;;;;3.83;0.82;;;10.10;99.90;;;;;;4970244;28;20027;-62
2021/10/11 04:09:31;;;;;;;6.15;1.05;;;10.10;99.90;;;;;;4969597;28;20041;-63
2021/10/11 04:12:05;;;;;;;8.05;1.10;;;10.20;99.90;;;;;;4970117;28;20043;-62
2021/10/11 04:14:32;;;;;;;3.75;1.13;;;10.20;99.90;;;;;;4969887;28;20118;-62
2021/10/11 04:16:57;;;;;;;6.88;1.70;;;10.30;99.90;;;;;;4970364;28;20050;-62
2021/10/11 04:19:23;;;;;;;2.28;0.90;;;10.30;99.90;;;;;;4969989;28;20043;-63
2021/10/11 04:21:48;;;;;;;5.30;1.40;;;10.40;99.90;;;;;;4969703;28;20042;-63
2021/10/11 04:24:14;;;;;;;5.63;1.35;;;10.40;99.90;;;;;;4970008;28;20406;-62
2021/10/11 04:26:39;;;;;;;11.60;2.50;;;10.40;99.90;;;;;;4969559;28;20086;-62
2021/10/11 04:29:05;;;;;;;2.88;0.88;;;10.50;99.90;;;;;;4969881;28;20034;-62
2021/10/11 04:31:31;;;;;;;4.95;1.27;;;10.50;99.90;;;;;;4975542;28;20133;-62
2021/10/11 04:33:56;;;;;;;6.22;1.30;;;10.50;99.90;;;;;;4971096;28;20050;-62
2021/10/11 04:36:24;;;;;;;8.10;1.20;;;10.60;99.90;;;;;;4974430;28;20090;-62
2021/10/11 04:38:50;;;;;;;9.65;0.98;;;10.60;99.90;;;;;;4967567;28;20035;-62
2021/10/11 04:41:16;;;;;;;7.13;1.60;;;10.60;99.90;;;;;;4975466;28;20053;-62
2021/10/11 04:43:42;;;;;;;7.80;1.15;;;10.60;99.90;;;;;;4979403;28;20081;-61
2021/10/11 04:46:07;;;;;;;1.98;0.80;;;10.50;99.90;;;;;;4978172;28;20042;-63
2021/10/11 04:48:33;;;;;;;8.60;1.23;;;10.50;99.90;;;;;;4979894;28;20110;-61
2021/10/11 04:50:59;;;;;;;8.23;1.55;;;10.40;99.90;;;;;;4978605;28;20034;-62
2021/10/11 04:53:24;;;;;;;4.72;1.25;;;10.30;99.90;;;;;;4983272;28;20511;-62
2021/10/11 04:55:50;;;;;;;7.43;0.90;;;10.30;99.90;;;;;;4972789;28;20127;-62
2021/10/11 04:58:16;;;;;;;6.00;0.93;;;10.20;99.90;;;;;;4973180;28;20086;-62
2021/10/11 05:00:41;;;;;;;8.52;1.67;;;10.10;99.90;;;;;;4972860;28;20439;-62
2021/10/11 05:03:07;;;;;;;7.80;0.82;;;10.10;99.90;;;;;;4968059;28;20035;-62
2021/10/11 05:05:33;;;;;;;7.90;1.00;;;10.10;99.90;;;;;;4969985;28;20327;-62
2021/10/11 05:08:00;;;;;;;6.38;1.05;;;10.10;99.90;;;;;;4969555;28;20683;-62
2021/10/11 05:10:25;;;;;;;7.00;0.95;;;10.00;99.90;;;;;;4970450;28;20042;-62
2021/10/11 05:12:51;;;;;;;10.10;0.93;;;10.00;99.90;;;;;;4967773;28;20573;-62
2021/10/11 05:15:17;;;;;;;4.32;1.42;;;9.90;99.90;;;;;;4965852;28;20031;-61
2021/10/11 05:17:43;;;;;;;2.58;0.55;;;9.90;99.90;;;;;;4966814;28;20333;-62
2021/10/11 05:20:10;;;;;;;6.22;1.52;;;9.90;99.90;;;;;;4969305;28;20035;-62
2021/10/11 05:22:36;;;;;;;5.35;1.45;;;9.80;99.90;;;;;;4968637;28;20046;-63
2021/10/11 05:25:01;;;;;;;11.88;1.48;;;9.80;99.90;;;;;;4968221;28;20035;-62
2021/10/11 05:27:27;;;;;;;4.97;1.00;;;9.80;99.90;;;;;;4968527;28;20030;-62
2021/10/11 05:29:53;;;;;;;5.07;0.98;;;9.80;99.90;;;;;;4968561;28;20069;-61
2021/10/11 05:32:18;;;;;;;8.95;1.08;;;9.80;99.90;;;;;;4969002;28;20050;-62
2021/10/11 05:34:45;;;;;;;9.68;1.38;;;9.80;99.90;;;;;;4966805;28;20054;-63
2021/10/11 05:37:10;;;;;;;7.03;0.90;;;9.80;99.90;;;;;;4983491;28;20035;-61
2021/10/11 05:39:39;;;;;;;5.90;1.48;;;9.90;99.90;;;;;;4967383;28;20481;-62
2021/10/11 05:42:06;;;;;;;5.07;0.73;;;9.90;99.90;;;;;;4968573;28;20039;-62
2021/10/11 05:44:32;;;;;;;3.03;0.75;;;9.90;99.90;;;;;;4967402;28;20145;-62
2021/10/11 05:46:58;;;;;;;8.15;1.92;;;10.00;99.90;;;;;;4967406;28;20038;-62
2021/10/11 05:49:24;;;;;;;10.52;0.88;;;10.00;99.90;;;;;;4967792;28;20035;-62
2021/10/11 05:51:50;;;;;;;3.95;0.73;;;10.10;99.90;;;;;;4965336;28;20542;-62
2021/10/11 05:54:16;;;;;;;6.10;1.00;;;10.10;99.90;;;;;;4968379;28;20043;-62
2021/10/11 05:56:41;;;;;;;3.67;0.98;;;10.10;99.90;;;;;;4967643;28;20062;-63
2021/10/11 05:59:07;;;;;;;2.17;1.38;;;10.20;99.90;;;;;;4966890;28;20038;-62
2021/10/11 06:01:32;;;;;;;3.47;0.85;;;10.20;99.90;;;;;;4965980;28;20427;-62
2021/10/11 06:03:58;;;;;;;5.13;1.15;;;10.20;99.90;;;;;;4968269;28;20403;-64
2021/10/11 06:06:23;;;;;;;5.13;1.17;;;10.30;99.90;;;;;;4967983;28;20159;-62
2021/10/11 06:08:49;;;;;;;5.60;0.98;;;10.30;99.90;;;;;;4967369;28;20038;-61
2021/10/11 06:11:19;;;;;;;4.63;1.25;;;10.30;99.90;;;;;;4968399;28;20034;-62
2021/10/11 06:13:45;;;;;;;7.30;1.33;;;10.40;99.90;;;;;;4967450;28;20392;-62
2021/10/11 06:16:11;;;;;;;6.88;1.65;;;10.40;99.90;;;;;;4968550;28;20041;-62
2021/10/11 06:18:37;;;;;;;4.88;0.75;;;10.40;99.90;;;;;;4967475;28;20047;-62
2021/10/11 06:21:03;;;;;;;3.22;0.60;;;10.50;99.90;;;;;;4967273;28;20038;-62
2021/10/11 06:23:29;;;;;;;9.73;2.08;;;10.50;99.90;;;;;;4966685;28;20038;-62
2021/10/11 06:25:55;;;;;;;3.95;1.00;;;10.60;99.90;;;;;;4967782;28;20043;-62
2021/10/11 06:28:21;;;;;;;5.25;0.93;;;10.60;99.90;;;;;;4968012;28;20065;-62
2021/10/11 06:30:47;;;;;;;5.85;1.27;;;10.60;99.90;;;;;;4967348;28;20043;-62
2021/10/11 06:33:14;;;;;;;3.40;1.10;;;10.60;99.90;;;;;;4967704;28;20059;-61
2021/10/11 06:35:40;;;;;;;8.38;0.93;;;10.70;99.90;;;;;;4966297;28;20093;-62
2021/10/11 06:38:05;;;;;;;8.65;1.05;;;10.70;99.90;;;;;;4966991;28;20030;-62
2021/10/11 06:40:31;;;;;;;3.92;1.00;;;10.70;99.90;;;;;;4966188;28;20132;-62
2021/10/11 06:42:57;;;;;;;6.15;0.80;;;10.80;99.90;;;;;;4967788;28;20122;-62
2021/10/11 06:45:23;;;;;;;4.35;0.90;;;10.80;99.90;;;;;;4982619;28;20031;-62
2021/10/11 06:47:48;;;;;;;4.45;1.25;;;10.80;99.90;;;;;;4965627;28;20050;-62
2021/10/11 06:50:14;;;;;;;11.02;1.23;;;10.90;99.90;;;;;;4965925;28;20411;-61
2021/10/11 06:52:40;;;;;;;10.65;1.05;;;11.00;99.90;;;;;;4966727;28;20391;-62
2021/10/11 06:55:06;;;;;;;3.05;0.77;;;11.00;99.90;;;;;;4964891;28;20035;-62
2021/10/11 06:57:32;;;;;;;6.38;1.48;;;11.00;99.90;;;;;;4965847;28;20027;-62
2021/10/11 06:59:58;;;;;;;4.15;1.00;;;11.10;99.90;;;;;;4966445;28;20055;-61
2021/10/11 07:02:23;;;;;;;7.63;1.30;;;11.10;99.90;;;;;;4965298;28;20037;-62
2021/10/11 07:05:04;;;;;;;11.18;1.08;;;11.10;99.90;;;;;;4966719;28;20042;-62
2021/10/11 07:07:33;;;;;;;5.82;0.88;;;11.20;99.90;;;;;;4966177;28;20182;-62
2021/10/11 07:09:59;;;;;;;10.20;0.93;;;11.20;99.90;;;;;;4966944;28;20031;-62
2021/10/11 07:12:25;;;;;;;12.52;1.23;;;11.20;99.90;;;;;;4966282;28;20042;-62
2021/10/11 07:14:50;;;;;;;4.57;0.75;;;11.20;99.90;;;;;;4965909;28;20035;-63
2021/10/11 07:17:17;;;;;;;3.88;0.70;;;11.30;99.90;;;;;;4967474;28;20833;-63
2021/10/11 07:19:46;;;;;;;6.15;1.60;;;11.20;99.90;;;;;;4964723;28;20031;-61
2021/10/11 07:22:14;;;;;;;6.55;1.05;;;11.30;99.90;;;;;;4966708;28;20113;-63
2021/10/11 07:24:40;;;;;;;7.43;0.90;;;11.30;99.90;;;;;;4967010;28;20035;-62
2021/10/11 07:27:06;;;;;;;6.18;1.00;;;11.40;99.90;;;;;;4960199;28;20035;-61
2021/10/11 07:29:31;;;;;;;9.00;1.15;;;11.50;99.90;;;;;;4947678;28;20451;-61
2021/10/11 07:31:57;;;;;;;11.00;1.73;;;11.60;99.90;;;;;;4949953;28;20043;-62
2021/10/11 07:34:22;;;;;;;6.07;0.93;;;11.60;99.90;;;;;;4952125;28;20088;-62
2021/10/11 07:36:48;;;;;;;5.10;0.90;;;11.70;99.90;;;;;;4949364;28;20446;-62
2021/10/11 07:39:14;;;;;;;12.43;1.25;;;11.90;99.90;;;;;;4950816;28;20043;-62
2021/10/11 07:41:39;;;;;;;5.15;1.20;;;12.10;99.90;;;;;;4948209;28;20065;-62
2021/10/11 07:44:05;;;;;;;6.13;1.10;;;12.30;99.90;;;;;;4948712;28;20050;-62
2021/10/11 07:46:30;;;;;;;3.85;1.33;;;12.50;99.90;;;;;;4951523;28;20099;-63
2021/10/11 07:48:56;;;;;;;4.75;1.13;;;12.60;99.90;;;;;;4948574;28;20040;-63
2021/10/11 07:51:22;;;;;;;5.63;0.60;;;12.70;99.90;;;;;;4949478;28;20387;-62
2021/10/11 07:53:47;;;;;;;7.72;0.80;;;12.80;99.90;;;;;;4946402;28;20043;-61
2021/10/11 07:56:13;;;;;;;5.78;1.70;;;12.90;99.90;;;;;;4947856;28;20039;-61
2021/10/11 07:58:38;;;;;;;4.47;1.15;;;13.00;99.90;;;;;;4946703;28;20574;-61
2021/10/11 08:01:04;;;;;;;6.88;1.02;;;13.00;99.90;;;;;;4947652;28;20050;-61
2021/10/11 08:03:29;;;;;;;4.82;1.35;;;13.10;99.90;;;;;;4948157;28;20043;-62
2021/10/11 08:05:55;;;;;;;8.05;1.17;;;13.20;99.90;;;;;;4949381;28;20035;-62
2021/10/11 08:08:21;;;;;;;4.28;0.70;;;13.20;99.90;;;;;;4949331;28;20037;-61
2021/10/11 08:10:46;;;;;;;16.10;1.27;;;13.30;99.90;;;;;;4966295;28;20046;-61
2021/10/11 08:13:12;;;;;;;4.13;1.83;;;13.30;99.90;;;;;;4966623;28;20193;-63
2021/10/11 08:15:38;;;;;;;5.72;0.88;;;13.40;99.90;;;;;;4969892;28;20046;-63
2021/10/11 08:18:03;;;;;;;6.65;0.85;;;13.30;99.90;;;;;;4970499;28;20030;-63
2021/10/11 08:20:29;;;;;;;9.05;1.65;;;13.30;99.90;;;;;;4969564;28;20109;-63
2021/10/11 08:22:55;;;;;;;4.78;0.50;;;13.40;99.90;;;;;;4970281;28;20408;-62
2021/10/11 08:25:20;;;;;;;8.60;0.93;;;13.40;99.90;;;;;;4970438;28;20035;-63
2021/10/11 08:27:46;;;;;;;6.32;0.93;;;13.40;99.90;;;;;;4969604;28;20403;-63
2021/10/11 08:30:12;;;;;;;10.52;1.02;;;13.40;99.90;;;;;;4969837;28;20118;-64
2021/10/11 08:32:38;;;;;;;1.98;0.50;;;13.30;99.90;;;;;;4969131;28;20507;-63
2021/10/11 08:35:04;;;;;;;4.25;1.17;;;13.30;99.90;;;;;;4970532;28;20037;-64
2021/10/11 08:37:29;;;;;;;8.40;0.70;;;13.30;99.90;;;;;;4969459;28;20062;-63
2021/10/11 08:39:55;;;;;;;10.07;0.95;;;13.30;99.90;;;;;;4968200;28;20054;-62
2021/10/11 08:42:22;;;;;;;8.10;1.30;;;13.40;99.90;;;;;;4969947;28;20483;-64
2021/10/11 08:44:48;;;;;;;4.82;1.00;;;13.40;99.90;;;;;;4969355;28;20340;-64
2021/10/11 08:47:16;;;;;;;5.15;1.02;;;13.50;99.90;;;;;;4970297;28;20027;-63
2021/10/11 08:49:46;;;;;;;5.40;0.60;;;13.50;99.90;;;;;;4976705;28;20090;-63
2021/10/11 08:52:13;;;;;;;5.03;0.70;;;13.50;99.90;;;;;;4950339;28;20492;-63
2021/10/11 08:54:41;;;;;;;5.90;1.00;;;13.50;99.90;;;;;;4950276;28;20051;-64
2021/10/11 08:57:18;;;;;;;11.90;1.55;;;13.60;99.90;;;;;;4949890;28;20027;-63
2021/10/11 08:59:43;;;;;;;6.20;1.48;;;13.80;99.90;;;;;;4949609;28;20031;-64
2021/10/11 09:02:10;;;;;;;3.03;0.85;;;14.10;99.90;;;;;;4950706;28;20520;-62
2021/10/11 09:04:53;;;;;;;3.08;0.77;;;14.30;99.90;;;;;;4952106;28;20036;-62
2021/10/11 09:07:37;;;;;;;8.18;1.17;;;14.50;99.90;;;;;;4949297;28;20042;-63
2021/10/11 09:10:03;;;;;;;5.78;0.57;;;14.60;99.90;;;;;;4982636;28;20098;-62
2021/10/11 09:12:30;;;;;;;5.40;0.70;;;14.60;99.90;;;;;;4959777;28;20911;-63
2021/10/11 09:15:13;;;;;;;12.55;0.77;;;14.60;99.90;;;;;;4946716;28;20111;-62
2021/10/11 09:17:47;;;;;;;6.43;1.15;;;14.60;99.90;;;;;;4945207;28;20109;-63
2021/10/11 09:20:16;;;;;;;5.40;0.80;;;14.60;99.90;;;;;;4968764;28;20034;-62
2021/10/11 09:22:43;;;;;;;6.82;0.98;;;14.60;99.90;;;;;;4968333;28;20062;-62
2021/10/11 09:25:10;;;;;;;5.80;0.60;;;14.60;99.90;;;;;;4969528;28;20027;-62
2021/10/11 09:27:52;;;;;;;5.70;1.02;;;14.60;99.90;;;;;;4968888;28;20477;-62
2021/10/11 09:30:29;;;;;;;5.57;1.35;;;14.60;99.90;;;;;;4969073;28;20039;-63
2021/10/11 09:33:22;;;;;;;6.82;0.93;;;14.60;99.90;;;;;;4957072;28;20503;-63
2021/10/11 09:35:50;;;;;;;7.10;0.70;;;14.60;99.90;;;;;;4964800;28;20038;-63
2021/10/11 09:38:24;;;;;;;7.80;1.13;;;14.60;99.90;;;;;;4958801;28;20828;-64
2021/10/11 09:40:56;;;;;;;11.27;1.38;;;14.70;99.90;;;;;;4943537;28;20116;-62
2021/10/11 09:43:24;;;;;;;9.45;1.13;;;14.80;99.90;;;;;;4950791;28;20035;-63
2021/10/11 09:45:51;;;;;;;7.88;1.45;;;15.00;99.90;;;;;;4949578;28;20031;-62
2021/10/11 09:48:16;;;;;;;10.00;1.13;;;15.30;99.90;;;;;;4950181;28;20090;-62
2021/10/11 09:50:43;;;;;;;6.40;1.45;;;15.60;99.90;;;;;;4949416;28;20495;-62
2021/10/11 09:53:11;;;;;;;5.40;0.63;;;15.80;99.90;;;;;;4950887;28;20510;-62
2021/10/11 09:55:39;;;;;;;5.53;1.27;;;15.90;99.90;;;;;;4943174;28;20114;-64
2021/10/11 09:58:13;;;;;;;3.72;0.50;;;16.00;99.90;;;;;;4949467;28;20026;-63
2021/10/11 10:00:42;;;;;;;6.05;0.43;;;16.10;99.90;;;;;;4962160;28;20059;-65
2021/10/11 10:03:13;;;;;;;5.57;1.23;;;16.20;99.90;;;;;;4962932;28;21382;-63
2021/10/11 10:05:44;;;;;;;5.03;0.50;;;16.20;99.90;;;;;;4964037;28;20142;-63
2021/10/11 10:08:17;;;;;;;5.03;0.93;;;16.10;99.90;;;;;;4963037;28;20035;-64
2021/10/11 10:10:48;;;;;;;15.45;1.33;;;15.90;99.90;;;;;;4960960;28;20043;-63
2021/10/11 10:13:19;;;;;;;2.95;0.40;;;15.80;99.90;;;;;;4964121;28;20097;-62
2021/10/11 10:15:46;;;;;;;3.35;0.70;;;15.60;99.90;;;;;;4944822;28;20040;-62
2021/10/11 10:18:16;;;;;;;6.47;0.90;;;15.50;99.90;;;;;;4953245;28;20042;-63
2021/10/11 10:20:53;;;;;;;5.40;0.73;;;15.50;99.90;;;;;;4963695;28;20050;-61
2021/10/11 10:23:30;;;;;;;4.07;0.55;;;15.50;99.90;;;;;;4963032;28;20039;-62
2021/10/11 10:25:58;;;;;;;4.43;0.63;;;15.50;99.90;;;;;;4947807;28;20118;-63
2021/10/11 10:28:24;;;;;;;12.55;0.60;;;15.70;99.90;;;;;;4961459;28;20042;-63
2021/10/11 10:31:02;;;;;;;3.95;0.90;;;15.80;99.90;;;;;;4961342;28;20041;-62
2021/10/11 10:33:37;;;;;;;6.43;0.50;;;15.90;99.90;;;;;;4960346;28;20030;-63
2021/10/11 10:36:04;;;;;;;16.23;1.45;;;16.00;99.90;;;;;;4961705;28;20039;-62
2021/10/11 10:38:31;;;;;;;3.78;0.60;;;16.20;99.90;;;;;;4961277;28;20061;-62
2021/10/11 10:40:57;;;;;;;2.03;0.40;;;16.30;99.90;;;;;;4961851;28;20034;-62
2021/10/11 10:43:23;;;;;;;9.73;0.93;;;16.20;99.90;;;;;;4960945;28;20454;-62
2021/10/11 10:45:48;;;;;;;6.40;1.50;;;16.30;99.90;;;;;;4963439;28;20046;-62
2021/10/11 10:48:22;;;;;;;6.68;0.40;;;16.30;99.90;;;;;;4962699;28;20101;-61
2021/10/11 10:50:49;;;;;;;7.43;0.68;;;16.20;99.90;;;;;;4962994;28;20038;-62
2021/10/11 10:53:15;;;;;;;4.18;0.57;;;16.10;99.90;;;;;;4974946;28;20042;-62
2021/10/11 10:55:42;;;;;;;2.30;0.70;;;16.00;99.90;;;;;;4968354;28;20038;-62
2021/10/11 10:58:10;;;;;;;4.75;0.52;;;15.90;99.90;;;;;;4972846;28;20031;-63
2021/10/11 11:00:40;;;;;;;5.75;0.25;;;15.70;99.90;;;;;;4961778;28;20030;-62
2021/10/11 11:03:13;;;;;;;5.78;0.35;;;15.70;99.90;;;;;;4963531;28;20675;-63
2021/10/11 11:05:41;;;;;;;7.75;1.85;;;15.60;99.90;;;;;;4967229;28;20093;-62
2021/10/11 11:08:07;;;;;;;5.55;0.80;;;15.60;99.90;;;;;;4966905;28;20043;-62
2021/10/11 11:10:36;;;;;;;2.50;0.40;;;15.60;99.90;;;;;;4966905;28;20042;-64
2021/10/11 11:13:07;;;;;;;3.30;0.40;;;15.50;99.90;;;;;;4967406;28;20451;-62
2021/10/11 11:15:38;;;;;;;3.45;0.45;;;15.50;99.90;;;;;;4967059;28;20042;-63
2021/10/11 11:18:04;;;;;;;;;;;15.40;99.90;;;;;;4967567;28;20031;-62
2021/10/11 11:20:37;;;;;;;5.55;0.52;;;15.40;99.90;;;;;;4966922;28;19922;-62
2021/10/11 11:23:07;;;;;;;4.78;1.17;;;15.40;99.90;;;;;;4966548;28;20105;-64
2021/10/11 11:25:35;;;;;;;4.35;0.40;;;15.40;99.90;;;;;;4966754;28;20034;-62
2021/10/11 11:28:03;;;;;;;3.97;0.30;;;15.50;99.90;;;;;;4967032;28;20376;-62
2021/10/11 11:30:29;;;;;;;3.97;0.45;;;15.60;99.90;;;;;;4966954;28;20031;-64
2021/10/11 11:33:01;;;;;;;8.45;0.60;;;15.70;99.90;;;;;;4966941;28;20097;-62
2021/10/11 11:35:49;;;;;;;1.95;0.43;;;15.80;99.90;;;;;;4966546;28;20081;-64
2021/10/11 11:38:18;;;;;;;4.53;1.40;;;15.80;99.90;;;;;;4967069;28;20114;-63
2021/10/11 11:40:53;;;;;;;2.28;0.30;;;16.00;99.90;;;;;;4967046;28;20070;-62
2021/10/11 11:43:20;;;;;;;3.30;0.38;;;16.00;99.90;;;;;;4965823;28;20049;-63
2021/10/11 11:45:48;;;;;;;3.00;0.30;;;16.10;99.90;;;;;;4966665;28;20070;-63
2021/10/11 11:48:26;;;;;;;5.55;0.90;;;16.20;99.90;;;;;;4967331;28;20031;-63
2021/10/11 11:50:54;;;;;;;2.03;0.30;;;16.10;99.90;;;;;;4970819;28;20395;-61
2021/10/11 11:53:22;;;;;;;2.50;0.13;;;16.10;99.90;;;;;;4969988;28;20049;-62
2021/10/11 11:55:54;;;;;;;4.13;0.77;;;16.10;99.90;;;;;;4968728;28;20076;-62
2021/10/11 11:58:29;;;;;;;3.97;0.30;;;16.10;99.90;;;;;;4969748;28;20030;-63
2021/10/11 12:00:57;;;;;;;5.68;0.50;;;16.10;99.90;;;;;;4970836;28;20041;-63
2021/10/11 12:03:25;;;;;;;5.40;0.50;;;16.10;99.90;;;;;;4971069;28;20451;-61
2021/10/11 12:05:54;;;;;;;4.70;0.73;;;16.10;99.90;;;;;;4973974;28;20026;-63
2021/10/11 12:08:20;;;;;;;5.18;0.60;;;16.30;99.90;;;;;;4971638;28;20027;-63
2021/10/11 12:11:01;;;;;;;5.63;0.80;;;16.40;99.90;;;;;;4972813;28;20039;-63
2021/10/11 12:13:35;;;;;;;2.17;0.30;;;16.50;99.90;;;;;;4972897;28;20721;-64
2021/10/11 12:16:03;;;;;;;4.00;0.35;;;16.60;99.90;;;;;;4955563;28;20404;-62
2021/10/11 12:18:36;;;;;;;1.83;0.63;;;16.90;99.90;;;;;;4941011;28;20050;-62
2021/10/11 12:21:02;;;;;;;3.67;0.30;;;17.00;99.90;;;;;;4963839;28;20039;-63
2021/10/11 12:23:37;;;;;;;4.18;0.40;;;17.10;99.90;;;;;;4972698;28;20043;-63
2021/10/11 12:26:03;;;;;;;2.97;0.30;;;17.00;99.90;;;;;;4976625;28;20039;-63
2021/10/11 12:28:29;;;;;;;6.60;0.93;;;16.90;99.90;;;;;;4987607;28;20678;-62
2021/10/11 12:31:03;;;;;;;6.60;0.68;;;16.70;99.90;;;;;;4987886;28;20038;-63
2021/10/11 12:33:38;;;;;;;3.95;0.43;;;16.60;99.90;;;;;;4984030;28;20082;-65
2021/10/11 12:36:04;;;;;;;7.40;0.47;;;16.50;99.90;;;;;;4986957;28;20042;-60
2021/10/11 12:38:36;;;;;;;3.63;0.45;;;16.50;99.90;;;;;;4987771;28;20051;-64
2021/10/11 12:41:14;;;;;;;2.03;0.65;;;16.50;99.90;;;;;;4988297;28;20034;-63
2021/10/11 12:43:55;;;;;;;3.47;0.30;;;16.40;99.90;;;;;;4984293;28;20038;-62
2021/10/11 12:46:21;;;;;;;3.53;0.40;;;16.60;99.90;;;;;;4976795;28;20043;-64
2021/10/11 12:48:50;;;;;;;4.30;0.30;;;16.70;99.90;;;;;;4969949;28;20043;-62